Search for airport 
image banner adimage banner adimage banner ad
image banner ad

KWVI - Watsonville Muni

Located in Watsonville, United States

ICAO - WVI, IATA - WVI

Data provided by Airmate  

General information

Coordinates: N36°56'9" W121°47'23"
Elevation is 163 feet MSL.
Magnetic variation is 14° East
View others Airports in California

Operational data

Special qualification required
Current time UTC:
Current local time:
Weather
METAR: KWVI 221253Z AUTO 23003KT 10SM OVC016 16/13 A2993 RMK AO2 SLP135 T01560128
View NOTAMs / SUP AIP / TFR affecting this airport [VIEW]
Communications frequencies: [VIEW]

Runways:

RWY identifierQFULength (ft)Width (ft)SurfaceLDA (ft)
0232°4501149ASPH
20212°4501149ASPH
0999°399898ASPH
27279°399898ASPH

Airport contact information

Address: Watsonville United States

Other aviation service providers

Flight schools

Strawberry Aviation, Inc.

Strawberry Aviation, Inc.
flysai@gmail.com+1(831)722-1126

Santa Cruz Flying Club

Santa Cruz Flying Club
info@scfc.org+1(831)722-4580

Ocean Air Flight Services, Inc.

Ocean Air Flight Services, Inc.

United Flight Services

United Flight Services
info@united-flight.com+1(831)722-4155

Specialized Helicopters, Llc

Specialized Helicopters, Llc
main@spheli.com+1(831)763-2244

Satellite view of KWVI